sensor_id;sensor_type;location;lat;lon;timestamp;P1;durP1;ratioP1;P2;durP2;ratioP2
16813;SDS011;8524;57.650;11.926;2023-04-24T00:01:04;24.57;;;21.90;;
16813;SDS011;8524;57.650;11.926;2023-04-24T00:03:33;24.63;;;22.00;;
16813;SDS011;8524;57.650;11.926;2023-04-24T00:06:00;23.83;;;21.20;;
16813;SDS011;8524;57.650;11.926;2023-04-24T00:08:27;25.30;;;22.57;;
16813;SDS011;8524;57.650;11.926;2023-04-24T00:10:54;24.33;;;21.73;;
16813;SDS011;8524;57.650;11.926;2023-04-24T00:13:21;23.77;;;21.00;;
16813;SDS011;8524;57.650;11.926;2023-04-24T00:15:48;20.50;;;17.63;;
16813;SDS011;8524;57.650;11.926;2023-04-24T00:18:16;23.50;;;20.07;;
16813;SDS011;8524;57.650;11.926;2023-04-24T00:20:44;20.57;;;18.37;;
16813;SDS011;8524;57.650;11.926;2023-04-24T00:23:12;20.83;;;18.10;;
16813;SDS011;8524;57.650;11.926;2023-04-24T00:25:39;20.37;;;18.20;;
16813;SDS011;8524;57.650;11.926;2023-04-24T00:28:06;21.80;;;19.27;;
16813;SDS011;8524;57.650;11.926;2023-04-24T00:30:33;21.40;;;19.17;;
16813;SDS011;8524;57.650;11.926;2023-04-24T00:33:00;20.60;;;18.47;;
16813;SDS011;8524;57.650;11.926;2023-04-24T00:35:27;20.67;;;18.50;;
16813;SDS011;8524;57.650;11.926;2023-04-24T00:37:55;20.77;;;18.57;;
16813;SDS011;8524;57.650;11.926;2023-04-24T00:40:22;21.03;;;18.83;;
16813;SDS011;8524;57.650;11.926;2023-04-24T00:42:49;19.97;;;17.90;;
16813;SDS011;8524;57.650;11.926;2023-04-24T00:45:16;20.97;;;18.83;;
16813;SDS011;8524;57.650;11.926;2023-04-24T00:47:43;20.53;;;18.33;;
16813;SDS011;8524;57.650;11.926;2023-04-24T00:50:14;21.60;;;19.60;;
16813;SDS011;8524;57.650;11.926;2023-04-24T00:52:42;19.63;;;17.57;;
16813;SDS011;8524;57.650;11.926;2023-04-24T00:55:10;21.63;;;19.33;;
16813;SDS011;8524;57.650;11.926;2023-04-24T00:57:37;21.13;;;18.93;;
16813;SDS011;8524;57.650;11.926;2023-04-24T01:00:05;20.67;;;18.57;;
16813;SDS011;8524;57.650;11.926;2023-04-24T01:02:36;23.13;;;20.63;;
16813;SDS011;8524;57.650;11.926;2023-04-24T01:05:05;20.40;;;18.23;;
16813;SDS011;8524;57.650;11.926;2023-04-24T01:07:34;23.20;;;20.40;;
16813;SDS011;8524;57.650;11.926;2023-04-24T01:10:02;20.73;;;17.47;;
16813;SDS011;8524;57.650;11.926;2023-04-24T01:12:31;21.43;;;19.17;;
16813;SDS011;8524;57.650;11.926;2023-04-24T01:14:58;21.10;;;18.87;;
16813;SDS011;8524;57.650;11.926;2023-04-24T01:17:26;21.20;;;19.10;;
16813;SDS011;8524;57.650;11.926;2023-04-24T01:19:53;22.63;;;19.93;;
16813;SDS011;8524;57.650;11.926;2023-04-24T01:22:23;19.30;;;17.30;;
16813;SDS011;8524;57.650;11.926;2023-04-24T01:24:50;20.57;;;18.37;;
16813;SDS011;8524;57.650;11.926;2023-04-24T01:27:18;19.80;;;17.70;;
16813;SDS011;8524;57.650;11.926;2023-04-24T01:29:46;22.47;;;20.07;;
16813;SDS011;8524;57.650;11.926;2023-04-24T01:32:14;19.93;;;17.93;;
16813;SDS011;8524;57.650;11.926;2023-04-24T01:34:41;19.73;;;17.13;;
16813;SDS011;8524;57.650;11.926;2023-04-24T01:37:10;19.60;;;17.70;;
16813;SDS011;8524;57.650;11.926;2023-04-24T01:39:38;20.77;;;17.80;;
16813;SDS011;8524;57.650;11.926;2023-04-24T01:42:05;21.23;;;19.33;;
16813;SDS011;8524;57.650;11.926;2023-04-24T01:44:33;20.20;;;17.70;;
16813;SDS011;8524;57.650;11.926;2023-04-24T01:47:00;22.30;;;19.17;;
16813;SDS011;8524;57.650;11.926;2023-04-24T01:49:27;20.13;;;18.03;;
16813;SDS011;8524;57.650;11.926;2023-04-24T01:51:55;18.20;;;16.33;;
16813;SDS011;8524;57.650;11.926;2023-04-24T01:54:22;20.77;;;18.43;;
16813;SDS011;8524;57.650;11.926;2023-04-24T01:56:51;18.30;;;16.40;;
16813;SDS011;8524;57.650;11.926;2023-04-24T01:59:18;18.70;;;16.77;;
16813;SDS011;8524;57.650;11.926;2023-04-24T02:01:47;18.17;;;16.30;;
16813;SDS011;8524;57.650;11.926;2023-04-24T02:04:14;18.67;;;16.63;;
16813;SDS011;8524;57.650;11.926;2023-04-24T02:06:41;19.73;;;16.67;;
16813;SDS011;8524;57.650;11.926;2023-04-24T02:09:08;17.50;;;15.70;;
16813;SDS011;8524;57.650;11.926;2023-04-24T02:11:35;20.30;;;17.97;;
16813;SDS011;8524;57.650;11.926;2023-04-24T02:14:04;17.67;;;15.87;;
16813;SDS011;8524;57.650;11.926;2023-04-24T02:16:31;17.80;;;15.93;;
16813;SDS011;8524;57.650;11.926;2023-04-24T02:18:58;18.10;;;16.33;;
16813;SDS011;8524;57.650;11.926;2023-04-24T02:21:26;18.00;;;16.13;;
16813;SDS011;8524;57.650;11.926;2023-04-24T02:23:53;18.20;;;16.40;;
16813;SDS011;8524;57.650;11.926;2023-04-24T02:26:20;19.37;;;17.47;;
16813;SDS011;8524;57.650;11.926;2023-04-24T02:28:47;18.57;;;16.67;;
16813;SDS011;8524;57.650;11.926;2023-04-24T02:31:16;15.93;;;14.33;;
16813;SDS011;8524;57.650;11.926;2023-04-24T02:33:43;15.93;;;14.33;;
16813;SDS011;8524;57.650;11.926;2023-04-24T02:36:10;18.20;;;16.40;;
16813;SDS011;8524;57.650;11.926;2023-04-24T02:38:38;17.43;;;15.63;;
16813;SDS011;8524;57.650;11.926;2023-04-24T02:41:05;18.10;;;16.30;;
16813;SDS011;8524;57.650;11.926;2023-04-24T02:43:32;18.80;;;16.80;;
16813;SDS011;8524;57.650;11.926;2023-04-24T02:45:59;19.50;;;17.33;;
16813;SDS011;8524;57.650;11.926;2023-04-24T02:48:27;19.13;;;17.20;;
16813;SDS011;8524;57.650;11.926;2023-04-24T02:50:55;17.83;;;15.63;;
16813;SDS011;8524;57.650;11.926;2023-04-24T02:53:22;18.60;;;16.70;;
16813;SDS011;8524;57.650;11.926;2023-04-24T02:55:49;17.87;;;15.63;;
16813;SDS011;8524;57.650;11.926;2023-04-24T02:58:16;16.77;;;15.07;;
16813;SDS011;8524;57.650;11.926;2023-04-24T03:00:45;16.63;;;14.93;;
16813;SDS011;8524;57.650;11.926;2023-04-24T03:03:12;17.40;;;15.60;;
16813;SDS011;8524;57.650;11.926;2023-04-24T03:05:41;16.63;;;13.77;;
16813;SDS011;8524;57.650;11.926;2023-04-24T03:08:08;17.07;;;15.27;;
16813;SDS011;8524;57.650;11.926;2023-04-24T03:10:36;17.67;;;15.87;;
16813;SDS011;8524;57.650;11.926;2023-04-24T03:13:03;17.17;;;15.50;;
16813;SDS011;8524;57.650;11.926;2023-04-24T03:15:30;17.60;;;15.80;;
16813;SDS011;8524;57.650;11.926;2023-04-24T03:17:57;15.90;;;14.40;;
16813;SDS011;8524;57.650;11.926;2023-04-24T03:20:25;17.20;;;15.50;;
16813;SDS011;8524;57.650;11.926;2023-04-24T03:22:54;17.45;;;15.65;;
16813;SDS011;8524;57.650;11.926;2023-04-24T03:25:21;16.23;;;14.53;;
16813;SDS011;8524;57.650;11.926;2023-04-24T03:27:48;18.40;;;16.60;;
16813;SDS011;8524;57.650;11.926;2023-04-24T03:30:15;17.33;;;15.60;;
16813;SDS011;8524;57.650;11.926;2023-04-24T03:32:42;17.93;;;15.90;;
16813;SDS011;8524;57.650;11.926;2023-04-24T03:35:09;18.13;;;16.27;;
16813;SDS011;8524;57.650;11.926;2023-04-24T03:37:36;16.97;;;15.23;;
16813;SDS011;8524;57.650;11.926;2023-04-24T03:40:06;17.55;;;15.95;;
16813;SDS011;8524;57.650;11.926;2023-04-24T03:42:34;15.43;;;13.93;;
16813;SDS011;8524;57.650;11.926;2023-04-24T03:45:01;15.73;;;14.13;;
16813;SDS011;8524;57.650;11.926;2023-04-24T03:47:28;18.03;;;15.90;;
16813;SDS011;8524;57.650;11.926;2023-04-24T03:49:55;15.67;;;14.00;;
16813;SDS011;8524;57.650;11.926;2023-04-24T03:52:22;15.57;;;13.80;;
16813;SDS011;8524;57.650;11.926;2023-04-24T03:54:49;17.43;;;15.63;;
16813;SDS011;8524;57.650;11.926;2023-04-24T03:57:17;16.20;;;14.60;;
16813;SDS011;8524;57.650;11.926;2023-04-24T03:59:45;17.13;;;15.33;;
16813;SDS011;8524;57.650;11.926;2023-04-24T04:02:12;16.43;;;14.67;;
16813;SDS011;8524;57.650;11.926;2023-04-24T04:04:39;16.83;;;15.03;;
16813;SDS011;8524;57.650;11.926;2023-04-24T04:07:06;17.90;;;14.70;;
16813;SDS011;8524;57.650;11.926;2023-04-24T04:09:33;15.87;;;14.17;;
16813;SDS011;8524;57.650;11.926;2023-04-24T04:12:00;19.27;;;17.48;;
16813;SDS011;8524;57.650;11.926;2023-04-24T04:14:29;16.50;;;14.83;;
16813;SDS011;8524;57.650;11.926;2023-04-24T04:16:56;16.20;;;14.60;;
16813;SDS011;8524;57.650;11.926;2023-04-24T04:19:23;17.70;;;16.00;;
16813;SDS011;8524;57.650;11.926;2023-04-24T04:21:50;14.00;;;12.60;;
16813;SDS011;8524;57.650;11.926;2023-04-24T04:24:18;16.40;;;14.00;;
16813;SDS011;8524;57.650;11.926;2023-04-24T04:26:47;16.70;;;14.80;;
16813;SDS011;8524;57.650;11.926;2023-04-24T04:29:16;16.63;;;14.73;;
16813;SDS011;8524;57.650;11.926;2023-04-24T04:31:44;14.30;;;12.87;;
16813;SDS011;8524;57.650;11.926;2023-04-24T04:34:11;16.87;;;14.47;;
16813;SDS011;8524;57.650;11.926;2023-04-24T04:36:39;17.87;;;15.20;;
16813;SDS011;8524;57.650;11.926;2023-04-24T04:39:06;18.03;;;15.23;;
16813;SDS011;8524;57.650;11.926;2023-04-24T04:41:33;16.17;;;14.37;;
16813;SDS011;8524;57.650;11.926;2023-04-24T04:44:00;16.33;;;14.43;;
16813;SDS011;8524;57.650;11.926;2023-04-24T04:46:29;16.03;;;14.43;;
16813;SDS011;8524;57.650;11.926;2023-04-24T04:49:00;16.27;;;14.57;;
16813;SDS011;8524;57.650;11.926;2023-04-24T04:51:28;14.63;;;13.13;;
16813;SDS011;8524;57.650;11.926;2023-04-24T04:53:55;16.00;;;14.30;;
16813;SDS011;8524;57.650;11.926;2023-04-24T04:56:22;16.47;;;14.73;;
16813;SDS011;8524;57.650;11.926;2023-04-24T04:58:49;15.97;;;14.40;;
16813;SDS011;8524;57.650;11.926;2023-04-24T05:01:16;16.00;;;13.60;;
16813;SDS011;8524;57.650;11.926;2023-04-24T05:03:43;15.10;;;13.50;;
16813;SDS011;8524;57.650;11.926;2023-04-24T05:06:11;15.07;;;12.93;;
16813;SDS011;8524;57.650;11.926;2023-04-24T05:08:38;16.63;;;14.10;;
16813;SDS011;8524;57.650;11.926;2023-04-24T05:11:06;17.63;;;15.07;;
16813;SDS011;8524;57.650;11.926;2023-04-24T05:13:33;15.17;;;13.70;;
16813;SDS011;8524;57.650;11.926;2023-04-24T05:16:00;14.47;;;12.93;;
16813;SDS011;8524;57.650;11.926;2023-04-24T05:18:27;17.27;;;13.13;;
16813;SDS011;8524;57.650;11.926;2023-04-24T05:20:54;14.90;;;13.30;;
16813;SDS011;8524;57.650;11.926;2023-04-24T05:23:22;14.63;;;13.00;;
16813;SDS011;8524;57.650;11.926;2023-04-24T05:25:49;17.37;;;13.40;;
16813;SDS011;8524;57.650;11.926;2023-04-24T05:28:17;15.63;;;13.93;;
16813;SDS011;8524;57.650;11.926;2023-04-24T05:30:44;14.03;;;12.20;;
16813;SDS011;8524;57.650;11.926;2023-04-24T05:33:11;12.50;;;11.23;;
16813;SDS011;8524;57.650;11.926;2023-04-24T05:35:40;14.53;;;12.50;;
16813;SDS011;8524;57.650;11.926;2023-04-24T05:38:10;13.37;;;12.00;;
16813;SDS011;8524;57.650;11.926;2023-04-24T05:40:39;14.00;;;11.70;;
16813;SDS011;8524;57.650;11.926;2023-04-24T05:43:06;14.53;;;13.03;;
16813;SDS011;8524;57.650;11.926;2023-04-24T05:45:33;14.70;;;13.03;;
16813;SDS011;8524;57.650;11.926;2023-04-24T05:48:01;11.60;;;10.07;;
16813;SDS011;8524;57.650;11.926;2023-04-24T05:50:28;11.80;;;10.60;;
16813;SDS011;8524;57.650;11.926;2023-04-24T05:52:55;13.50;;;12.20;;
16813;SDS011;8524;57.650;11.926;2023-04-24T05:55:23;13.47;;;11.77;;
16813;SDS011;8524;57.650;11.926;2023-04-24T05:57:52;13.43;;;12.13;;
16813;SDS011;8524;57.650;11.926;2023-04-24T06:00:20;12.93;;;11.53;;
16813;SDS011;8524;57.650;11.926;2023-04-24T06:02:47;12.10;;;10.93;;
16813;SDS011;8524;57.650;11.926;2023-04-24T06:05:14;13.40;;;11.93;;
16813;SDS011;8524;57.650;11.926;2023-04-24T06:07:41;13.00;;;11.73;;
16813;SDS011;8524;57.650;11.926;2023-04-24T06:10:09;13.63;;;12.13;;
16813;SDS011;8524;57.650;11.926;2023-04-24T06:12:36;12.10;;;10.80;;
16813;SDS011;8524;57.650;11.926;2023-04-24T06:15:06;12.63;;;11.33;;
16813;SDS011;8524;57.650;11.926;2023-04-24T06:17:33;13.53;;;12.20;;
16813;SDS011;8524;57.650;11.926;2023-04-24T06:20:01;12.80;;;11.43;;
16813;SDS011;8524;57.650;11.926;2023-04-24T06:22:30;12.60;;;11.30;;
16813;SDS011;8524;57.650;11.926;2023-04-24T06:24:58;12.17;;;10.87;;
16813;SDS011;8524;57.650;11.926;2023-04-24T06:27:26;12.50;;;11.20;;
16813;SDS011;8524;57.650;11.926;2023-04-24T06:29:53;11.87;;;10.67;;
16813;SDS011;8524;57.650;11.926;2023-04-24T06:32:22;12.60;;;11.40;;
16813;SDS011;8524;57.650;11.926;2023-04-24T06:34:50;12.77;;;11.47;;
16813;SDS011;8524;57.650;11.926;2023-04-24T06:37:18;11.50;;;10.30;;
16813;SDS011;8524;57.650;11.926;2023-04-24T06:39:46;10.80;;;9.70;;
16813;SDS011;8524;57.650;11.926;2023-04-24T06:42:13;12.00;;;10.77;;
16813;SDS011;8524;57.650;11.926;2023-04-24T06:44:40;10.30;;;9.37;;
16813;SDS011;8524;57.650;11.926;2023-04-24T06:47:07;11.87;;;10.77;;
16813;SDS011;8524;57.650;11.926;2023-04-24T06:49:36;10.77;;;9.77;;
16813;SDS011;8524;57.650;11.926;2023-04-24T06:52:04;11.90;;;10.70;;
16813;SDS011;8524;57.650;11.926;2023-04-24T06:54:31;8.83;;;7.73;;
16813;SDS011;8524;57.650;11.926;2023-04-24T06:56:59;11.43;;;10.33;;
16813;SDS011;8524;57.650;11.926;2023-04-24T06:59:27;12.10;;;10.90;;
16813;SDS011;8524;57.650;11.926;2023-04-24T07:01:54;12.83;;;11.53;;
16813;SDS011;8524;57.650;11.926;2023-04-24T07:04:22;11.43;;;10.27;;
16813;SDS011;8524;57.650;11.926;2023-04-24T07:06:51;10.20;;;9.23;;
16813;SDS011;8524;57.650;11.926;2023-04-24T07:09:20;11.27;;;10.27;;
16813;SDS011;8524;57.650;11.926;2023-04-24T07:11:48;11.53;;;10.37;;
16813;SDS011;8524;57.650;11.926;2023-04-24T07:14:16;11.57;;;10.37;;
16813;SDS011;8524;57.650;11.926;2023-04-24T07:16:43;12.20;;;10.93;;
16813;SDS011;8524;57.650;11.926;2023-04-24T07:19:11;10.57;;;9.57;;
16813;SDS011;8524;57.650;11.926;2023-04-24T07:21:39;12.33;;;11.13;;
16813;SDS011;8524;57.650;11.926;2023-04-24T07:24:08;12.33;;;11.13;;
16813;SDS011;8524;57.650;11.926;2023-04-24T07:26:36;10.50;;;9.10;;
16813;SDS011;8524;57.650;11.926;2023-04-24T07:29:04;12.20;;;11.00;;
16813;SDS011;8524;57.650;11.926;2023-04-24T07:31:31;11.40;;;10.30;;
16813;SDS011;8524;57.650;11.926;2023-04-24T07:33:58;12.17;;;11.10;;
16813;SDS011;8524;57.650;11.926;2023-04-24T07:36:27;12.40;;;11.23;;
16813;SDS011;8524;57.650;11.926;2023-04-24T07:38:54;12.27;;;10.60;;
16813;SDS011;8524;57.650;11.926;2023-04-24T07:41:23;12.63;;;11.40;;
16813;SDS011;8524;57.650;11.926;2023-04-24T07:43:52;11.63;;;10.50;;
16813;SDS011;8524;57.650;11.926;2023-04-24T07:46:19;13.70;;;12.33;;
16813;SDS011;8524;57.650;11.926;2023-04-24T07:48:48;13.07;;;11.83;;
16813;SDS011;8524;57.650;11.926;2023-04-24T07:51:15;11.87;;;10.50;;
16813;SDS011;8524;57.650;11.926;2023-04-24T07:53:43;13.23;;;11.73;;
16813;SDS011;8524;57.650;11.926;2023-04-24T07:56:10;12.00;;;10.80;;
16813;SDS011;8524;57.650;11.926;2023-04-24T07:58:39;11.47;;;10.37;;
16813;SDS011;8524;57.650;11.926;2023-04-24T08:01:06;11.87;;;10.70;;
16813;SDS011;8524;57.650;11.926;2023-04-24T08:03:33;11.03;;;9.80;;
16813;SDS011;8524;57.650;11.926;2023-04-24T08:06:00;14.70;;;13.17;;
16813;SDS011;8524;57.650;11.926;2023-04-24T08:08:27;13.13;;;11.80;;
16813;SDS011;8524;57.650;11.926;2023-04-24T08:10:55;14.47;;;12.97;;
16813;SDS011;8524;57.650;11.926;2023-04-24T08:13:22;11.27;;;10.27;;
16813;SDS011;8524;57.650;11.926;2023-04-24T08:15:50;14.23;;;12.63;;
16813;SDS011;8524;57.650;11.926;2023-04-24T08:18:17;14.37;;;12.80;;
16813;SDS011;8524;57.650;11.926;2023-04-24T08:20:44;13.23;;;11.97;;
16813;SDS011;8524;57.650;11.926;2023-04-24T08:23:11;13.93;;;12.53;;
16813;SDS011;8524;57.650;11.926;2023-04-24T08:25:38;13.17;;;11.90;;
16813;SDS011;8524;57.650;11.926;2023-04-24T08:28:06;11.50;;;10.30;;
16813;SDS011;8524;57.650;11.926;2023-04-24T08:30:34;12.50;;;11.30;;
16813;SDS011;8524;57.650;11.926;2023-04-24T08:33:03;13.53;;;12.13;;
16813;SDS011;8524;57.650;11.926;2023-04-24T08:35:30;12.50;;;11.20;;
16813;SDS011;8524;57.650;11.926;2023-04-24T08:37:58;13.90;;;12.50;;
16813;SDS011;8524;57.650;11.926;2023-04-24T08:40:27;14.10;;;12.67;;
16813;SDS011;8524;57.650;11.926;2023-04-24T08:42:55;14.17;;;12.73;;
16813;SDS011;8524;57.650;11.926;2023-04-24T08:45:23;16.40;;;13.70;;
16813;SDS011;8524;57.650;11.926;2023-04-24T08:47:51;13.37;;;11.97;;
16813;SDS011;8524;57.650;11.926;2023-04-24T08:50:21;12.80;;;11.50;;
16813;SDS011;8524;57.650;11.926;2023-04-24T08:52:49;12.93;;;11.73;;
16813;SDS011;8524;57.650;11.926;2023-04-24T08:55:18;10.97;;;9.87;;
16813;SDS011;8524;57.650;11.926;2023-04-24T08:57:49;11.13;;;10.00;;
16813;SDS011;8524;57.650;11.926;2023-04-24T09:00:18;11.10;;;9.83;;
16813;SDS011;8524;57.650;11.926;2023-04-24T09:02:47;10.17;;;9.17;;
16813;SDS011;8524;57.650;11.926;2023-04-24T09:05:16;10.00;;;9.00;;
16813;SDS011;8524;57.650;11.926;2023-04-24T09:07:48;8.37;;;7.60;;
16813;SDS011;8524;57.650;11.926;2023-04-24T09:10:19;8.30;;;7.07;;
16813;SDS011;8524;57.650;11.926;2023-04-24T09:12:48;8.50;;;7.70;;
16813;SDS011;8524;57.650;11.926;2023-04-24T09:15:18;10.17;;;9.00;;
16813;SDS011;8524;57.650;11.926;2023-04-24T09:17:45;7.30;;;6.60;;
16813;SDS011;8524;57.650;11.926;2023-04-24T09:20:12;8.37;;;7.47;;
16813;SDS011;8524;57.650;11.926;2023-04-24T09:22:40;7.43;;;6.73;;
16813;SDS011;8524;57.650;11.926;2023-04-24T09:25:09;7.50;;;6.80;;
16813;SDS011;8524;57.650;11.926;2023-04-24T09:27:41;7.80;;;6.00;;
16813;SDS011;8524;57.650;11.926;2023-04-24T09:30:09;6.33;;;5.70;;
16813;SDS011;8524;57.650;11.926;2023-04-24T09:32:37;7.27;;;6.57;;
16813;SDS011;8524;57.650;11.926;2023-04-24T09:35:08;7.40;;;6.60;;
16813;SDS011;8524;57.650;11.926;2023-04-24T09:37:37;7.87;;;7.00;;
16813;SDS011;8524;57.650;11.926;2023-04-24T09:40:10;6.83;;;6.03;;
16813;SDS011;8524;57.650;11.926;2023-04-24T09:42:38;8.10;;;7.30;;
16813;SDS011;8524;57.650;11.926;2023-04-24T09:45:08;7.50;;;6.80;;
16813;SDS011;8524;57.650;11.926;2023-04-24T09:47:36;8.27;;;7.47;;
16813;SDS011;8524;57.650;11.926;2023-04-24T09:50:11;7.70;;;6.70;;
16813;SDS011;8524;57.650;11.926;2023-04-24T09:52:40;8.20;;;7.27;;
16813;SDS011;8524;57.650;11.926;2023-04-24T09:55:18;7.70;;;6.90;;
16813;SDS011;8524;57.650;11.926;2023-04-24T09:57:47;6.90;;;6.30;;
16813;SDS011;8524;57.650;11.926;2023-04-24T10:00:18;7.10;;;6.47;;
16813;SDS011;8524;57.650;11.926;2023-04-24T10:02:51;6.43;;;5.83;;
16813;SDS011;8524;57.650;11.926;2023-04-24T10:05:23;6.87;;;6.17;;
16813;SDS011;8524;57.650;11.926;2023-04-24T10:07:51;5.63;;;5.07;;
16813;SDS011;8524;57.650;11.926;2023-04-24T10:10:23;8.10;;;7.30;;
16813;SDS011;8524;57.650;11.926;2023-04-24T10:12:51;7.63;;;6.83;;
16813;SDS011;8524;57.650;11.926;2023-04-24T10:15:18;7.87;;;7.17;;
16813;SDS011;8524;57.650;11.926;2023-04-24T10:17:47;7.33;;;6.63;;
16813;SDS011;8524;57.650;11.926;2023-04-24T10:20:17;7.77;;;7.00;;
16813;SDS011;8524;57.650;11.926;2023-04-24T10:22:47;7.97;;;7.17;;
16813;SDS011;8524;57.650;11.926;2023-04-24T10:25:16;8.30;;;7.50;;
16813;SDS011;8524;57.650;11.926;2023-04-24T10:27:47;8.43;;;7.63;;
16813;SDS011;8524;57.650;11.926;2023-04-24T10:30:16;8.23;;;7.43;;
16813;SDS011;8524;57.650;11.926;2023-04-24T10:32:44;6.67;;;6.03;;
16813;SDS011;8524;57.650;11.926;2023-04-24T10:35:11;7.23;;;6.50;;
16813;SDS011;8524;57.650;11.926;2023-04-24T10:37:42;8.07;;;7.30;;
16813;SDS011;8524;57.650;11.926;2023-04-24T10:40:11;7.70;;;6.80;;
16813;SDS011;8524;57.650;11.926;2023-04-24T10:42:43;7.67;;;6.97;;
16813;SDS011;8524;57.650;11.926;2023-04-24T10:45:18;7.13;;;6.43;;
16813;SDS011;8524;57.650;11.926;2023-04-24T10:47:54;8.27;;;7.47;;
16813;SDS011;8524;57.650;11.926;2023-04-24T10:50:25;8.17;;;7.47;;
16813;SDS011;8524;57.650;11.926;2023-04-24T10:52:53;6.40;;;5.80;;
16813;SDS011;8524;57.650;11.926;2023-04-24T10:55:44;5.77;;;5.27;;
16813;SDS011;8524;57.650;11.926;2023-04-24T10:58:15;5.40;;;4.90;;
16813;SDS011;8524;57.650;11.926;2023-04-24T11:00:43;6.00;;;5.50;;
16813;SDS011;8524;57.650;11.926;2023-04-24T11:03:25;5.87;;;5.37;;
16813;SDS011;8524;57.650;11.926;2023-04-24T11:05:57;6.97;;;6.27;;
16813;SDS011;8524;57.650;11.926;2023-04-24T11:08:29;6.90;;;6.30;;
16813;SDS011;8524;57.650;11.926;2023-04-24T11:11:01;5.47;;;5.00;;
16813;SDS011;8524;57.650;11.926;2023-04-24T11:16:33;7.00;;;6.40;;
16813;SDS011;8524;57.650;11.926;2023-04-24T11:19:17;6.23;;;5.73;;
16813;SDS011;8524;57.650;11.926;2023-04-24T11:21:48;5.97;;;5.40;;
16813;SDS011;8524;57.650;11.926;2023-04-24T11:24:25;5.50;;;5.00;;
16813;SDS011;8524;57.650;11.926;2023-04-24T11:26:54;5.03;;;4.63;;
16813;SDS011;8524;57.650;11.926;2023-04-24T11:29:22;5.97;;;5.37;;
16813;SDS011;8524;57.650;11.926;2023-04-24T11:32:15;4.83;;;4.43;;
16813;SDS011;8524;57.650;11.926;2023-04-24T11:34:49;6.40;;;5.77;;
16813;SDS011;8524;57.650;11.926;2023-04-24T11:37:17;5.47;;;4.83;;
16813;SDS011;8524;57.650;11.926;2023-04-24T11:39:44;5.10;;;4.60;;
16813;SDS011;8524;57.650;11.926;2023-04-24T11:42:13;5.67;;;5.17;;
16813;SDS011;8524;57.650;11.926;2023-04-24T11:44:41;5.57;;;5.07;;
16813;SDS011;8524;57.650;11.926;2023-04-24T11:47:10;5.63;;;5.13;;
16813;SDS011;8524;57.650;11.926;2023-04-24T11:49:38;4.73;;;4.33;;
16813;SDS011;8524;57.650;11.926;2023-04-24T11:52:05;3.93;;;3.63;;
16813;SDS011;8524;57.650;11.926;2023-04-24T11:54:32;4.90;;;4.50;;
16813;SDS011;8524;57.650;11.926;2023-04-24T11:57:03;4.90;;;4.50;;
16813;SDS011;8524;57.650;11.926;2023-04-24T11:59:35;5.57;;;4.90;;
16813;SDS011;8524;57.650;11.926;2023-04-24T12:02:03;4.93;;;4.53;;
16813;SDS011;8524;57.650;11.926;2023-04-24T12:04:39;4.93;;;4.53;;
16813;SDS011;8524;57.650;11.926;2023-04-24T12:07:07;5.03;;;4.30;;
16813;SDS011;8524;57.650;11.926;2023-04-24T12:09:41;5.37;;;4.80;;
16813;SDS011;8524;57.650;11.926;2023-04-24T12:12:13;4.23;;;3.93;;
16813;SDS011;8524;57.650;11.926;2023-04-24T12:14:44;5.03;;;4.10;;
16813;SDS011;8524;57.650;11.926;2023-04-24T12:17:23;4.63;;;4.23;;
16813;SDS011;8524;57.650;11.926;2023-04-24T12:19:56;4.10;;;3.80;;
16813;SDS011;8524;57.650;11.926;2023-04-24T12:22:24;4.13;;;3.73;;
16813;SDS011;8524;57.650;11.926;2023-04-24T12:24:58;3.73;;;3.40;;
16813;SDS011;8524;57.650;11.926;2023-04-24T12:27:29;3.97;;;3.67;;
16813;SDS011;8524;57.650;11.926;2023-04-24T12:29:57;4.33;;;3.97;;
16813;SDS011;8524;57.650;11.926;2023-04-24T12:32:25;4.27;;;3.87;;
16813;SDS011;8524;57.650;11.926;2023-04-24T12:34:54;3.77;;;3.47;;
16813;SDS011;8524;57.650;11.926;2023-04-24T12:37:22;4.27;;;3.87;;
16813;SDS011;8524;57.650;11.926;2023-04-24T12:40:03;4.10;;;3.80;;
16813;SDS011;8524;57.650;11.926;2023-04-24T12:42:32;3.77;;;3.47;;
16813;SDS011;8524;57.650;11.926;2023-04-24T12:45:00;5.40;;;3.93;;
16813;SDS011;8524;57.650;11.926;2023-04-24T12:47:29;3.97;;;3.67;;
16813;SDS011;8524;57.650;11.926;2023-04-24T12:49:58;4.03;;;3.57;;
16813;SDS011;8524;57.650;11.926;2023-04-24T12:52:26;3.80;;;3.50;;
16813;SDS011;8524;57.650;11.926;2023-04-24T12:54:55;4.27;;;3.97;;
16813;SDS011;8524;57.650;11.926;2023-04-24T12:57:24;3.70;;;3.20;;
16813;SDS011;8524;57.650;11.926;2023-04-24T12:59:53;4.40;;;4.00;;
16813;SDS011;8524;57.650;11.926;2023-04-24T13:02:21;3.47;;;3.27;;
16813;SDS011;8524;57.650;11.926;2023-04-24T13:04:48;3.63;;;3.33;;
16813;SDS011;8524;57.650;11.926;2023-04-24T13:07:17;4.00;;;3.70;;
16813;SDS011;8524;57.650;11.926;2023-04-24T13:09:45;4.17;;;3.87;;
16813;SDS011;8524;57.650;11.926;2023-04-24T13:12:13;4.20;;;3.57;;
16813;SDS011;8524;57.650;11.926;2023-04-24T13:14:41;4.10;;;3.80;;
16813;SDS011;8524;57.650;11.926;2023-04-24T13:17:08;4.20;;;3.80;;
16813;SDS011;8524;57.650;11.926;2023-04-24T13:19:37;4.27;;;3.87;;
16813;SDS011;8524;57.650;11.926;2023-04-24T13:22:05;4.27;;;3.90;;
16813;SDS011;8524;57.650;11.926;2023-04-24T13:24:34;4.70;;;4.30;;
16813;SDS011;8524;57.650;11.926;2023-04-24T13:27:07;4.37;;;3.60;;
16813;SDS011;8524;57.650;11.926;2023-04-24T13:29:34;4.60;;;4.20;;
16813;SDS011;8524;57.650;11.926;2023-04-24T13:32:01;4.53;;;4.13;;
16813;SDS011;8524;57.650;11.926;2023-04-24T13:34:28;3.63;;;3.37;;
16813;SDS011;8524;57.650;11.926;2023-04-24T13:36:56;4.83;;;4.40;;
16813;SDS011;8524;57.650;11.926;2023-04-24T13:39:24;5.17;;;4.77;;
16813;SDS011;8524;57.650;11.926;2023-04-24T13:41:53;4.97;;;4.57;;
16813;SDS011;8524;57.650;11.926;2023-04-24T13:44:21;5.93;;;5.40;;
16813;SDS011;8524;57.650;11.926;2023-04-24T13:46:49;5.10;;;4.70;;
16813;SDS011;8524;57.650;11.926;2023-04-24T13:49:19;5.33;;;4.43;;
16813;SDS011;8524;57.650;11.926;2023-04-24T13:51:47;5.27;;;4.80;;
16813;SDS011;8524;57.650;11.926;2023-04-24T13:54:14;5.30;;;4.80;;
16813;SDS011;8524;57.650;11.926;2023-04-24T13:56:41;6.33;;;5.60;;
16813;SDS011;8524;57.650;11.926;2023-04-24T13:59:11;6.88;;;6.25;;
16813;SDS011;8524;57.650;11.926;2023-04-24T14:01:39;7.37;;;6.10;;
16813;SDS011;8524;57.650;11.926;2023-04-24T14:04:06;7.63;;;6.83;;
16813;SDS011;8524;57.650;11.926;2023-04-24T14:06:33;6.40;;;5.50;;
16813;SDS011;8524;57.650;11.926;2023-04-24T14:09:00;6.37;;;5.80;;
16813;SDS011;8524;57.650;11.926;2023-04-24T14:11:27;6.03;;;5.43;;
16813;SDS011;8524;57.650;11.926;2023-04-24T14:13:55;6.77;;;6.13;;
16813;SDS011;8524;57.650;11.926;2023-04-24T14:16:24;7.43;;;6.73;;
16813;SDS011;8524;57.650;11.926;2023-04-24T14:18:51;7.10;;;6.50;;
16813;SDS011;8524;57.650;11.926;2023-04-24T14:21:18;6.77;;;6.13;;
16813;SDS011;8524;57.650;11.926;2023-04-24T14:23:45;7.23;;;6.20;;
16813;SDS011;8524;57.650;11.926;2023-04-24T14:26:12;6.20;;;5.60;;
16813;SDS011;8524;57.650;11.926;2023-04-24T14:28:39;6.53;;;5.93;;
16813;SDS011;8524;57.650;11.926;2023-04-24T14:31:06;7.17;;;6.20;;
16813;SDS011;8524;57.650;11.926;2023-04-24T14:33:35;6.53;;;5.93;;
16813;SDS011;8524;57.650;11.926;2023-04-24T14:36:02;7.33;;;6.63;;
16813;SDS011;8524;57.650;11.926;2023-04-24T14:38:30;6.83;;;6.27;;
16813;SDS011;8524;57.650;11.926;2023-04-24T14:40:57;7.50;;;6.88;;